»·PEaware :: N20957 L88-KSBP

N20957 :: L88-KSBP

FLIGHT INFORMATION

Flight Status: Arrived
Operator: Privately registered:
United States
More flights under this callsign
Pilot: Charles P. (32095)
Aircraft: CESSNA 172 SKYHAWK
(C172)
More flights by this aircraft type
Origin: L88 New Cuyama
United States
Destination: KSBP San Luis Co Regl
United States
More flights between these airports :: More routes between these airports
Route:
File this flight plan on PilotEdge
Remarks: N / A
Altitude:
(Current/Filed)
6,500ft
Speed:
(Current/Filed)
165kts
Departed: 05-Jan-21 12:04 PM
Arrived: 05-Jan-21 02:57 PM
Distance/Time
Traveled:
50nm/2:53
Distance/Time
To Go:
Arrived

Flight Plot

Page will automatically refresh every two minutes.


Map Options




Map Legend


Flown Route
Filed Route
Departure Airport
Arrival Airport
Navaid (VOR, NDB)
Fix

Horizontal Profiles

Position Reports

Time Latitude Longitude Heading Altitude Ground
Speed
05-Jan-21 11:46 34.942611 -119.690256 108 2153ft 0kts
05-Jan-21 11:47 34.942611 -119.690256 108 2153ft 0kts
05-Jan-21 11:48 34.942611 -119.690256 108 2153ft 0kts
05-Jan-21 11:49 34.942611 -119.690256 108 2153ft 0kts
05-Jan-21 11:50 34.942611 -119.690256 108 2153ft 0kts
05-Jan-21 11:51 34.942611 -119.690256 108 2153ft 0kts
05-Jan-21 11:52 34.942611 -119.690256 108 2153ft 0kts
05-Jan-21 11:53 34.942611 -119.690256 108 2153ft 0kts
05-Jan-21 11:54 34.942611 -119.690256 108 2153ft 0kts
05-Jan-21 11:55 34.942611 -119.690256 108 2153ft 0kts
05-Jan-21 11:56 34.942611 -119.690256 108 2153ft 0kts
05-Jan-21 11:57 34.942611 -119.690256 108 2153ft 0kts
05-Jan-21 11:58 34.942527 -119.690321 281 2153ft 4kts
05-Jan-21 11:59 34.942290 -119.691285 114 2150ft 3kts
05-Jan-21 12:00 34.942288 -119.691279 114 2150ft 0kts
05-Jan-21 12:01 34.942288 -119.691279 114 2150ft 0kts
05-Jan-21 12:02 34.942288 -119.691279 114 2150ft 0kts
05-Jan-21 12:03 34.936299 -119.677339 113 2411ft 74kts
05-Jan-21 12:04 34.936974 -119.670907 272 3017ft 67kts
05-Jan-21 12:05 34.941919 -119.691811 297 3510ft 64kts
05-Jan-21 12:06 34.948330 -119.712171 295 3973ft 64kts
05-Jan-21 12:07 34.954744 -119.732476 296 4397ft 64kts
05-Jan-21 12:08 34.964218 -119.762647 293 4425ft 118kts
05-Jan-21 12:09 34.976459 -119.801643 293 4414ft 124kts
05-Jan-21 12:10 34.988895 -119.841271 293 4424ft 125kts
05-Jan-21 12:11 35.001318 -119.880943 293 4545ft 117kts
05-Jan-21 12:12 35.011235 -119.912512 294 5330ft 85kts
05-Jan-21 12:13 35.018204 -119.934843 295 5834ft 73kts
05-Jan-21 12:14 35.028135 -119.966666 292 5966ft 112kts
05-Jan-21 12:15 35.038818 -120.000827 293 6409ft 109kts
05-Jan-21 12:16 35.050639 -120.038744 292 6471ft 125kts
05-Jan-21 12:17 35.062884 -120.078068 293 6464ft 123kts
05-Jan-21 12:18 35.075241 -120.117814 292 6474ft 126kts
05-Jan-21 12:19 35.087683 -120.157943 293 6458ft 124kts
05-Jan-21 12:20 35.099775 -120.196919 293 6465ft 121kts
05-Jan-21 12:21 35.111819 -120.235889 293 6467ft 123kts
05-Jan-21 12:22 35.123999 -120.275083 293 6470ft 123kts
05-Jan-21 12:23 35.136079 -120.314238 293 6464ft 123kts
05-Jan-21 12:24 35.148093 -120.353258 292 6470ft 123kts
05-Jan-21 12:25 35.160079 -120.392182 292 6476ft 122kts
05-Jan-21 12:26 35.172035 -120.431035 292 6479ft 122kts
05-Jan-21 12:27 35.184033 -120.470168 292 6485ft 124kts
05-Jan-21 12:28 35.165664 -120.474100 110 6476ft 126kts
05-Jan-21 12:29 35.153031 -120.430684 106 5893ft 143kts
05-Jan-21 12:30 35.141024 -120.386598 106 5502ft 127kts
05-Jan-21 12:32 35.130563 -120.346466 105 5477ft 121kts
05-Jan-21 12:33 35.120446 -120.307427 105 5466ft 120kts
05-Jan-21 12:34 35.110460 -120.268475 105 5470ft 120kts
05-Jan-21 12:35 35.100643 -120.229598 105 5471ft 120kts
05-Jan-21 12:36 35.090980 -120.190853 105 5466ft 119kts
05-Jan-21 12:37 35.081271 -120.151865 105 5453ft 120kts
05-Jan-21 12:38 35.071525 -120.112519 105 5452ft 121kts
05-Jan-21 12:39 35.061742 -120.072870 105 5445ft 122kts
05-Jan-21 12:40 35.051274 -120.030684 105 4801ft 142kts
05-Jan-21 12:41 35.039553 -119.983768 105 3794ft 145kts
05-Jan-21 12:42 35.028600 -119.939445 105 3471ft 128kts
05-Jan-21 12:43 35.018564 -119.898734 105 3442ft 123kts
05-Jan-21 12:44 35.003292 -119.862456 135 3443ft 124kts
05-Jan-21 12:44 34.984303 -119.836110 122 3443ft 124kts
05-Jan-21 12:46 34.963114 -119.794754 120 3437ft 122kts
05-Jan-21 12:47 34.935332 -119.771306 151 3436ft 124kts
05-Jan-21 12:48 34.914489 -119.742661 93 3432ft 122kts
05-Jan-21 12:48 34.922141 -119.716384 37 3427ft 93kts
05-Jan-21 12:49 34.930995 -119.691503 141 3438ft 104kts
05-Jan-21 12:50 34.928407 -119.669702 10 3135ft 78kts
05-Jan-21 12:52 34.941921 -119.690403 298 2155ft 28kts
05-Jan-21 12:52 34.942927 -119.690846 297 2151ft 0kts
05-Jan-21 12:53 34.942927 -119.690846 297 2151ft 0kts
05-Jan-21 12:54 34.942927 -119.690846 297 2151ft 0kts
05-Jan-21 12:55 34.942927 -119.690846 297 2151ft 0kts
05-Jan-21 12:56 34.942927 -119.690846 297 2151ft 0kts
05-Jan-21 12:57 34.942927 -119.690846 297 2151ft 0kts
05-Jan-21 12:58 34.942927 -119.690846 297 2151ft 0kts
05-Jan-21 12:59 34.942927 -119.690846 297 2151ft 0kts
05-Jan-21 13:00 34.942927 -119.690846 297 2151ft 0kts
05-Jan-21 13:01 34.942927 -119.690846 297 2151ft 0kts
05-Jan-21 13:19 33.580008 -117.128078 116 1349ft 0kts
05-Jan-21 13:24 34.943161 -119.690984 24 2150ft 0kts
05-Jan-21 13:25 34.943161 -119.690984 24 2150ft 0kts
05-Jan-21 13:26 34.943161 -119.690984 24 2150ft 0kts
05-Jan-21 13:27 34.943161 -119.690984 24 2150ft 0kts
05-Jan-21 13:28 34.943161 -119.690984 24 2150ft 0kts
05-Jan-21 13:29 34.943161 -119.690984 24 2150ft 0kts
05-Jan-21 13:30 34.943161 -119.690984 24 2150ft 0kts
05-Jan-21 13:31 34.943161 -119.690984 24 2150ft 0kts
05-Jan-21 13:32 34.943190 -119.690923 67 2150ft 2kts
05-Jan-21 13:33 34.942675 -119.691281 202 2150ft 0kts
05-Jan-21 13:34 34.942304 -119.691316 115 2150ft 0kts
05-Jan-21 13:35 34.942302 -119.691311 114 2150ft 1kts
05-Jan-21 13:36 34.935529 -119.673674 109 2517ft 75kts
05-Jan-21 13:37 34.921165 -119.677859 293 3110ft 83kts
05-Jan-21 13:38 34.929343 -119.704647 288 3707ft 88kts
05-Jan-21 13:39 34.942778 -119.728027 322 4302ft 86kts
05-Jan-21 13:40 34.959870 -119.748421 298 4876ft 87kts
05-Jan-21 13:41 34.968370 -119.776297 293 5431ft 88kts
05-Jan-21 13:42 34.977334 -119.804350 292 5963ft 89kts
05-Jan-21 13:43 34.986177 -119.832507 292 6473ft 88kts
05-Jan-21 13:44 34.996750 -119.866240 291 6464ft 126kts
05-Jan-21 13:45 35.009364 -119.906596 291 6425ft 126kts
05-Jan-21 13:46 35.021931 -119.946757 291 6425ft 127kts
05-Jan-21 13:47 35.034482 -119.986906 291 6410ft 126kts
05-Jan-21 13:48 35.047039 -120.027192 291 6416ft 127kts
05-Jan-21 13:49 35.059517 -120.067258 291 6402ft 124kts
05-Jan-21 13:50 35.071869 -120.106975 291 6409ft 125kts
05-Jan-21 13:51 35.084206 -120.146726 291 6409ft 125kts
05-Jan-21 13:52 35.096515 -120.186393 291 6405ft 124kts
05-Jan-21 13:53 35.108744 -120.225851 291 6411ft 124kts
05-Jan-21 13:54 35.121013 -120.265475 291 6406ft 124kts
05-Jan-21 13:55 35.133207 -120.304969 291 6408ft 123kts
05-Jan-21 13:56 35.145281 -120.344131 291 6409ft 123kts
05-Jan-21 13:57 35.157445 -120.383572 291 6417ft 123kts
05-Jan-21 13:58 35.170617 -120.426441 291 5792ft 144kts
05-Jan-21 13:59 35.184896 -120.472922 291 4984ft 146kts
05-Jan-21 14:00 35.199054 -120.518999 291 4435ft 136kts
05-Jan-21 14:01 35.211652 -120.560294 292 4414ft 126kts
05-Jan-21 14:02 35.239246 -120.571777 11 4416ft 119kts
05-Jan-21 14:03 35.261494 -120.553227 98 4419ft 114kts
05-Jan-21 14:04 35.253610 -120.514157 103 4427ft 122kts
05-Jan-21 14:05 35.244996 -120.473906 103 4394ft 119kts
05-Jan-21 14:06 35.236716 -120.435271 103 4404ft 116kts
05-Jan-21 14:07 35.228307 -120.396355 103 4410ft 116kts
05-Jan-21 14:08 35.220313 -120.357013 102 4422ft 120kts
05-Jan-21 14:09 35.210135 -120.318639 147 4413ft 122kts
05-Jan-21 14:10 35.175617 -120.324060 191 4426ft 128kts
05-Jan-21 14:11 35.150693 -120.347780 269 4415ft 127kts
05-Jan-21 14:12 35.159235 -120.389316 293 4416ft 126kts
05-Jan-21 14:13 35.171745 -120.430155 292 4218ft 137kts
05-Jan-21 14:14 35.185490 -120.474875 292 3426ft 140kts
05-Jan-21 14:16 35.198283 -120.518211 272 2980ft 117kts
05-Jan-21 14:17 35.173903 -120.533316 192 3470ft 100kts
05-Jan-21 14:18 35.156796 -120.509414 107 3518ft 112kts
05-Jan-21 14:19 35.147031 -120.472432 105 3520ft 115kts
05-Jan-21 14:20 35.137565 -120.434860 105 3512ft 114kts
05-Jan-21 14:21 35.128217 -120.397725 105 3523ft 115kts
05-Jan-21 14:22 35.118869 -120.360204 105 3511ft 115kts
05-Jan-21 14:23 35.109495 -120.322615 105 3508ft 115kts
05-Jan-21 14:24 35.100198 -120.284964 105 3504ft 115kts
05-Jan-21 14:25 35.090939 -120.247111 105 3511ft 117kts
05-Jan-21 14:26 35.081692 -120.208988 105 3510ft 117kts
05-Jan-21 14:27 35.072378 -120.170741 105 3507ft 117kts
05-Jan-21 14:28 35.063157 -120.132610 105 3505ft 116kts
05-Jan-21 14:29 35.074072 -120.115885 305 3515ft 117kts
05-Jan-21 14:29 35.083507 -120.145251 291 3848ft 106kts
05-Jan-21 14:31 35.095990 -120.184725 292 4355ft 112kts
05-Jan-21 14:32 35.107780 -120.222696 291 4405ft 124kts
05-Jan-21 14:33 35.120166 -120.262722 292 4405ft 126kts
05-Jan-21 14:33 35.130500 -120.296228 292 4407ft 125kts
05-Jan-21 14:34 35.142875 -120.336363 292 4410ft 127kts
05-Jan-21 14:36 35.157458 -120.383649 292 4416ft 127kts
05-Jan-21 14:36 35.168840 -120.420611 292 3768ft 144kts
05-Jan-21 14:37 35.182973 -120.466582 292 2973ft 144kts
05-Jan-21 14:38 35.198461 -120.508842 337 2615ft 120kts
05-Jan-21 14:39 35.201159 -120.481555 103 3107ft 116kts
05-Jan-21 14:40 35.192229 -120.441958 103 3101ft 121kts
05-Jan-21 14:41 35.183575 -120.401864 103 3101ft 122kts
05-Jan-21 14:42 35.175026 -120.361510 103 3099ft 122kts
05-Jan-21 14:43 35.166531 -120.321225 103 3096ft 122kts
05-Jan-21 14:44 35.158093 -120.280934 103 3101ft 122kts
05-Jan-21 14:45 35.138343 -120.279799 253 3097ft 125kts
05-Jan-21 14:46 35.138569 -120.321938 285 3099ft 125kts
05-Jan-21 14:47 35.150817 -120.361870 290 3099ft 125kts
05-Jan-21 14:48 35.163040 -120.401654 291 3094ft 124kts
05-Jan-21 14:49 35.175200 -120.441351 292 3097ft 124kts
05-Jan-21 14:50 35.188072 -120.483299 291 2624ft 126kts
05-Jan-21 14:51 35.195485 -120.523494 264 1968ft 121kts
05-Jan-21 14:52 35.195497 -120.563377 284 1645ft 115kts
05-Jan-21 14:53 35.207794 -120.590209 308 1271ft 72kts
05-Jan-21 14:54 35.219820 -120.610656 310 801ft 70kts
05-Jan-21 14:55 35.231061 -120.630166 310 330ft 69kts
05-Jan-21 14:56 35.237345 -120.639963 7 195ft 0kts
05-Jan-21 14:57 35.237345 -120.639963 7 195ft 0kts
05-Jan-21 14:58 35.237345 -120.639963 7 195ft 0kts
05-Jan-21 14:59 35.237345 -120.639963 7 195ft 0kts
05-Jan-21 15:00 35.237447 -120.639942 6 194ft 0kts
05-Jan-21 15:01 35.237447 -120.639942 6 194ft 0kts
05-Jan-21 15:02 35.238776 -120.641123 34 190ft 0kts
05-Jan-21 15:03 35.238776 -120.641123 34 190ft 0kts
05-Jan-21 15:04 35.238776 -120.641123 34 190ft 0kts
05-Jan-21 15:05 35.238776 -120.641123 34 190ft 0kts
05-Jan-21 15:06 35.238776 -120.641123 34 190ft 0kts
05-Jan-21 15:07 35.238776 -120.641123 34 190ft 0kts
05-Jan-21 15:08 35.238776 -120.641123 34 190ft 0kts
05-Jan-21 15:09 35.238776 -120.641123 34 190ft 0kts
05-Jan-21 15:10 35.238776 -120.641123 34 190ft 0kts

Navigation Log

Ident Type
Flight plan parsing failed, navigation log unavailable